Pitesti, Romania
Current Conditions -  °F | °C
As of 2:00 AM on Saturday 20 Dec 2014 (Local Time) from LRCV Reporting Station
Clear Clear  
Wind Chill: 32°   Ceiling: Unl
Heat Index: 37°   Visibility: 4mi
Dew Point: 34°   Wind: 7mph
Humidity: 87%   Direction: 330°NNW
Pressure: 30.06"   Gusts: NA
Location:  44.86°N, 24.87°E
Report Text: LRCV 192300Z 33006KT 7000 NSC 03/01 Q1018
Loading
Personal Weather Stations






























Interactive Weather Map New forecast layout! Learn more

10-Day Weather Forecast

Advertisements
Track Severe Weather on mobile